createdAt,value
2022-09-29T00:00:21.232Z,7.13
2022-09-29T00:03:46.422Z,7.13
2022-09-29T00:06:51.895Z,7.14
2022-09-29T00:09:57.145Z,7.12
2022-09-29T00:13:02.376Z,7.09
2022-09-29T00:16:08.250Z,7.07
2022-09-29T00:19:13.658Z,7.04
2022-09-29T00:22:19.246Z,7.01
2022-09-29T00:25:24.493Z,7.01
2022-09-29T00:28:30.048Z,7.01
2022-09-29T00:31:35.384Z,7.01
2022-09-29T00:34:40.866Z,7.03
2022-09-29T00:37:46.289Z,7.04
2022-09-29T00:40:51.700Z,7.07
2022-09-29T00:43:58.720Z,7.09
2022-09-29T00:47:04.534Z,7.12
2022-09-29T00:50:14.330Z,7.11
2022-09-29T00:53:21.710Z,7.09
2022-09-29T00:56:27.779Z,7.10
2022-09-29T00:59:38.365Z,7.11
2022-09-29T01:02:45.524Z,7.14
2022-09-29T01:05:52.927Z,7.16
2022-09-29T01:09:01.469Z,7.18
2022-09-29T01:12:07.435Z,7.21
2022-09-29T01:15:13.773Z,7.24
2022-09-29T01:18:19.046Z,7.25
2022-09-29T01:21:30.110Z,7.27
2022-09-29T01:24:51.623Z,7.29
2022-09-29T01:28:12.316Z,7.32
2022-09-29T01:31:22.426Z,7.34
2022-09-29T01:34:34.911Z,7.35
2022-09-29T01:37:45.397Z,7.35
2022-09-29T01:40:55.963Z,7.34
2022-09-29T01:44:05.659Z,7.34
2022-09-29T01:47:13.219Z,7.35
2022-09-29T01:50:21.399Z,7.36
2022-09-29T01:53:29.718Z,7.34
2022-09-29T01:56:38.035Z,7.33
2022-09-29T01:59:46.141Z,7.35
2022-09-29T02:02:53.898Z,7.36
2022-09-29T02:06:00.657Z,7.37
2022-09-29T02:09:10.147Z,7.37
2022-09-29T02:12:18.191Z,7.36
2022-09-29T02:15:26.943Z,7.32
2022-09-29T02:18:35.066Z,7.30
2022-09-29T02:21:40.437Z,7.28
2022-09-29T02:24:45.753Z,7.25
2022-09-29T02:27:51.383Z,7.23
2022-09-29T02:30:56.683Z,7.21
2022-09-29T02:34:03.057Z,7.19
2022-09-29T02:37:13.687Z,7.18
2022-09-29T02:40:25.469Z,7.19
2022-09-29T02:43:40.882Z,7.20
2022-09-29T02:46:54.853Z,7.19
2022-09-29T02:50:16.361Z,7.17
2022-09-29T02:53:30.146Z,7.17
2022-09-29T02:56:42.121Z,7.18
2022-09-29T02:59:52.028Z,7.20
2022-09-29T03:02:57.356Z,7.24
2022-09-29T03:06:02.646Z,7.27
2022-09-29T03:09:08.188Z,7.28
2022-09-29T03:12:13.535Z,7.29
2022-09-29T03:15:19.135Z,7.28
2022-09-29T03:18:24.529Z,7.29
2022-09-29T03:21:29.833Z,7.31
2022-09-29T03:24:36.168Z,7.34
2022-09-29T03:27:41.556Z,7.36
2022-09-29T03:30:46.776Z,7.37
2022-09-29T03:33:52.132Z,7.34
2022-09-29T03:36:57.935Z,7.31
2022-09-29T03:40:04.021Z,7.32
2022-09-29T03:43:09.479Z,7.34
2022-09-29T03:46:14.798Z,7.33
2022-09-29T03:49:20.070Z,7.35
2022-09-29T03:52:25.599Z,7.35
2022-09-29T03:55:31.061Z,7.36
2022-09-29T03:58:36.417Z,7.37
2022-09-29T04:01:41.657Z,7.38
2022-09-29T04:04:46.945Z,7.36
2022-09-29T04:07:52.182Z,7.29
2022-09-29T04:11:00.240Z,7.22
2022-09-29T04:14:05.533Z,7.18
2022-09-29T04:17:11.322Z,7.15
2022-09-29T04:20:16.828Z,7.10
2022-09-29T04:23:22.593Z,7.07
2022-09-29T04:26:27.859Z,7.09
2022-09-29T04:29:33.292Z,7.10
2022-09-29T04:32:38.865Z,7.09
2022-09-29T04:35:44.212Z,7.09
2022-09-29T04:38:51.669Z,7.07
2022-09-29T04:41:56.843Z,7.06
2022-09-29T04:45:02.427Z,7.06
2022-09-29T04:48:07.782Z,7.03
2022-09-29T04:51:13.198Z,7.02
2022-09-29T04:54:18.515Z,6.99
2022-09-29T04:57:24.084Z,6.97
2022-09-29T05:00:29.403Z,6.97
2022-09-29T05:03:36.095Z,6.99
2022-09-29T05:06:41.285Z,7.01
2022-09-29T05:09:46.624Z,7.02
2022-09-29T05:12:52.196Z,7.07
2022-09-29T05:15:57.904Z,7.12
2022-09-29T05:19:06.220Z,7.16
2022-09-29T05:22:11.487Z,7.24
2022-09-29T05:25:16.846Z,7.25
2022-09-29T05:28:22.266Z,7.21
2022-09-29T05:31:27.714Z,7.14
2022-09-29T05:34:32.883Z,7.07
2022-09-29T05:37:38.180Z,7.00
2022-09-29T05:40:43.598Z,6.94
2022-09-29T05:43:49.129Z,6.94
2022-09-29T05:46:54.297Z,6.98
2022-09-29T05:49:59.885Z,7.01
2022-09-29T05:53:05.471Z,7.06
2022-09-29T05:56:12.100Z,7.13
2022-09-29T05:59:17.653Z,7.21
2022-09-29T06:02:23.423Z,7.33
2022-09-29T06:05:29.239Z,7.44
2022-09-29T06:08:34.998Z,7.56
2022-09-29T06:11:40.604Z,7.65
2022-09-29T06:14:46.000Z,7.76
2022-09-29T06:17:55.819Z,7.83
2022-09-29T06:21:05.063Z,7.90
2022-09-29T06:24:10.689Z,7.98
2022-09-29T06:27:17.515Z,8.03
2022-09-29T06:30:22.835Z,8.05
2022-09-29T06:33:28.129Z,8.06
2022-09-29T06:36:53.694Z,8.11
2022-09-29T06:39:59.049Z,8.14
2022-09-29T06:43:04.404Z,8.14
2022-09-29T06:46:12.940Z,8.18
2022-09-29T06:49:18.564Z,8.37
2022-09-29T06:52:29.095Z,8.68
2022-09-29T06:55:35.227Z,8.92
2022-09-29T06:58:40.655Z,9.12
2022-09-29T07:01:51.282Z,9.29
2022-09-29T07:04:57.887Z,9.38
2022-09-29T07:08:04.547Z,9.36
2022-09-29T07:11:10.583Z,9.22
2022-09-29T07:14:16.216Z,9.22
2022-09-29T07:17:21.724Z,9.32
2022-09-29T07:20:27.247Z,9.41
2022-09-29T07:23:32.397Z,9.55
2022-09-29T07:26:38.222Z,9.77
2022-09-29T07:29:45.938Z,9.98
2022-09-29T07:33:01.223Z,10.12
2022-09-29T07:36:08.132Z,10.19
2022-09-29T07:39:13.408Z,10.27
2022-09-29T07:42:19.724Z,10.29
2022-09-29T07:45:33.478Z,10.39
2022-09-29T07:48:39.922Z,10.50
2022-09-29T07:51:45.094Z,10.63
2022-09-29T07:54:50.365Z,10.69
2022-09-29T07:57:56.928Z,10.72
2022-09-29T08:01:04.469Z,10.74
2022-09-29T08:04:09.899Z,10.74
2022-09-29T08:07:15.432Z,10.86
2022-09-29T08:10:21.399Z,11.04
2022-09-29T08:13:26.618Z,11.17
2022-09-29T08:16:32.641Z,11.30
2022-09-29T08:19:38.329Z,11.27
2022-09-29T08:22:43.865Z,11.11
2022-09-29T08:25:58.905Z,11.01
2022-09-29T08:29:08.747Z,10.97
2022-09-29T08:32:15.568Z,10.93
2022-09-29T08:35:21.165Z,10.89
2022-09-29T08:38:27.047Z,10.97
2022-09-29T08:41:38.676Z,11.03
2022-09-29T08:44:46.734Z,11.20
2022-09-29T08:47:53.004Z,11.36
2022-09-29T08:50:59.419Z,11.43
2022-09-29T08:54:09.984Z,11.54
2022-09-29T08:57:18.600Z,11.81
2022-09-29T09:00:26.990Z,12.10
2022-09-29T09:03:56.465Z,12.29
2022-09-29T09:07:07.903Z,12.48
2022-09-29T09:10:22.473Z,12.69
2022-09-29T09:13:32.515Z,12.83
2022-09-29T09:16:41.392Z,12.92
2022-09-29T09:19:55.472Z,12.99
2022-09-29T09:23:03.080Z,12.94
2022-09-29T09:26:10.592Z,12.97
2022-09-29T09:29:19.809Z,13.02
2022-09-29T09:32:27.355Z,12.96
2022-09-29T09:35:40.485Z,12.81
2022-09-29T09:38:51.500Z,12.84
2022-09-29T09:42:01.192Z,12.96
2022-09-29T09:45:12.126Z,13.13
2022-09-29T09:48:23.129Z,13.12
2022-09-29T09:54:56.961Z,12.78
2022-09-29T09:58:11.943Z,12.65
2022-09-29T10:01:17.980Z,12.52
2022-09-29T10:04:26.507Z,12.67
2022-09-29T10:07:34.809Z,13.00
2022-09-29T10:10:57.416Z,13.34
2022-09-29T10:14:07.582Z,13.52
2022-09-29T10:17:18.316Z,13.49
2022-09-29T10:20:33.595Z,13.00
2022-09-29T10:23:38.889Z,12.43
2022-09-29T10:26:45.785Z,12.11
2022-09-29T10:29:52.929Z,12.13
2022-09-29T10:33:00.288Z,12.26
2022-09-29T10:36:09.605Z,12.20
2022-09-29T10:39:28.529Z,11.95
2022-09-29T10:42:36.172Z,11.88
2022-09-29T10:45:49.315Z,12.10
2022-09-29T10:49:09.685Z,12.41
2022-09-29T10:52:23.089Z,12.75
2022-09-29T10:55:29.209Z,12.92
2022-09-29T10:58:53.278Z,13.14
2022-09-29T11:02:02.773Z,13.54
2022-09-29T11:05:24.774Z,13.96
2022-09-29T11:08:31.301Z,14.33
2022-09-29T11:11:39.547Z,14.33
2022-09-29T11:14:44.830Z,14.21
2022-09-29T11:17:52.041Z,14.01
2022-09-29T11:21:02.536Z,13.94
2022-09-29T11:24:13.554Z,13.92
2022-09-29T11:27:26.640Z,14.02
2022-09-29T11:30:36.679Z,14.08
2022-09-29T11:33:48.649Z,14.04
2022-09-29T11:40:13.217Z,14.22
2022-09-29T11:43:27.479Z,14.73
2022-09-29T11:46:44.355Z,15.25
2022-09-29T11:49:58.989Z,15.47
2022-09-29T11:53:18.920Z,15.60
2022-09-29T11:56:31.970Z,15.78
2022-09-29T11:59:50.980Z,15.91
2022-09-29T12:03:10.731Z,16.07
2022-09-29T12:06:32.138Z,16.16
2022-09-29T12:09:57.388Z,16.20
2022-09-29T12:13:09.574Z,16.25
2022-09-29T12:16:16.725Z,16.28
2022-09-29T12:19:24.726Z,16.31
2022-09-29T12:22:33.202Z,16.34
2022-09-29T12:25:46.000Z,16.29
2022-09-29T12:28:53.603Z,16.18
2022-09-29T12:32:00.966Z,15.98
2022-09-29T12:35:12.854Z,15.89
2022-09-29T12:38:21.219Z,15.88
2022-09-29T12:41:27.368Z,15.88
2022-09-29T12:44:37.509Z,15.86
2022-09-29T12:47:49.246Z,15.86
2022-09-29T12:50:59.374Z,15.86
2022-09-29T12:54:15.769Z,15.82
2022-09-29T12:57:23.493Z,15.79
2022-09-29T13:00:32.302Z,15.68
2022-09-29T13:03:44.161Z,15.61
2022-09-29T13:07:09.507Z,15.62
2022-09-29T13:10:28.593Z,15.59
2022-09-29T13:13:40.846Z,15.53
2022-09-29T13:16:56.690Z,15.53
2022-09-29T13:20:12.203Z,15.49
2022-09-29T13:23:31.740Z,15.40
2022-09-29T13:26:42.748Z,15.44
2022-09-29T13:29:50.421Z,15.48
2022-09-29T13:32:58.215Z,15.50
2022-09-29T13:36:04.192Z,15.57
2022-09-29T13:39:20.553Z,15.69
2022-09-29T13:42:42.393Z,15.82
2022-09-29T13:45:48.638Z,16.06
2022-09-29T13:48:55.818Z,16.28
2022-09-29T13:52:26.060Z,16.32
2022-09-29T13:55:44.963Z,16.29
2022-09-29T13:59:01.987Z,16.32
2022-09-29T14:02:21.463Z,16.36
2022-09-29T14:05:43.120Z,16.34
2022-09-29T14:08:51.654Z,16.35
2022-09-29T14:11:58.114Z,16.36
2022-09-29T14:15:04.578Z,16.38
2022-09-29T14:18:17.848Z,16.38
2022-09-29T14:21:41.734Z,16.33
2022-09-29T14:24:51.633Z,16.15
2022-09-29T14:28:03.888Z,16.04
2022-09-29T14:31:18.331Z,15.88
2022-09-29T14:34:25.307Z,15.76
2022-09-29T14:37:33.817Z,15.66
2022-09-29T14:40:39.323Z,15.55
2022-09-29T14:43:46.385Z,15.45
2022-09-29T14:47:19.278Z,15.30
2022-09-29T14:51:08.515Z,15.13
2022-09-29T14:54:20.209Z,14.95
2022-09-29T14:57:34.304Z,14.81
2022-09-29T15:00:49.198Z,14.69
2022-09-29T15:03:56.352Z,14.59
2022-09-29T15:07:05.175Z,14.48
2022-09-29T15:10:21.584Z,14.37
2022-09-29T15:13:31.516Z,14.29
2022-09-29T15:16:41.741Z,14.20
2022-09-29T15:19:55.434Z,14.11
2022-09-29T15:23:07.871Z,14.01
2022-09-29T15:26:14.952Z,13.88
2022-09-29T15:29:21.040Z,13.77
2022-09-29T15:32:28.476Z,13.67
2022-09-29T15:35:39.059Z,13.55
2022-09-29T15:38:44.649Z,13.44
2022-09-29T15:42:00.507Z,13.32
2022-09-29T15:45:13.969Z,13.19
2022-09-29T15:48:19.135Z,13.08
2022-09-29T15:51:25.990Z,12.98
2022-09-29T15:57:50.377Z,12.77
2022-09-29T16:01:02.791Z,12.68
2022-09-29T16:04:09.796Z,12.55
2022-09-29T16:07:21.273Z,12.43
2022-09-29T16:10:28.983Z,12.31
2022-09-29T16:13:37.138Z,12.17
2022-09-29T16:16:45.382Z,12.05
2022-09-29T16:19:52.086Z,11.93
2022-09-29T16:22:57.640Z,11.83
2022-09-29T16:26:14.428Z,11.75
2022-09-29T16:29:39.692Z,11.67
2022-09-29T16:32:45.130Z,11.53
2022-09-29T16:36:07.062Z,11.44
2022-09-29T16:39:20.017Z,11.33
2022-09-29T16:42:27.608Z,11.22
2022-09-29T16:45:32.988Z,11.12
2022-09-29T16:48:41.526Z,11.07
2022-09-29T16:51:50.374Z,11.02
2022-09-29T16:55:08.081Z,10.93
2022-09-29T16:58:15.163Z,10.82
2022-09-29T17:01:20.571Z,10.69
2022-09-29T17:04:26.059Z,10.58
2022-09-29T17:07:31.358Z,10.46
2022-09-29T17:10:36.683Z,10.34
2022-09-29T17:13:42.734Z,10.23
2022-09-29T17:16:51.778Z,10.13
2022-09-29T17:19:57.537Z,10.01
2022-09-29T17:23:04.770Z,9.90
2022-09-29T17:26:32.530Z,9.79
2022-09-29T17:29:37.968Z,9.67
2022-09-29T17:32:44.382Z,9.59
2022-09-29T17:35:56.078Z,9.52
2022-09-29T17:39:01.963Z,9.47
2022-09-29T17:42:07.978Z,9.43
2022-09-29T17:45:13.314Z,9.40
2022-09-29T17:48:20.135Z,9.40
2022-09-29T17:51:25.596Z,9.40
2022-09-29T17:54:31.304Z,9.39
2022-09-29T17:57:36.600Z,9.37
2022-09-29T18:00:42.030Z,9.34
2022-09-29T18:03:47.375Z,9.33
2022-09-29T18:06:52.744Z,9.31
2022-09-29T18:09:58.242Z,9.25
2022-09-29T18:13:04.126Z,9.19
2022-09-29T18:16:15.159Z,9.13
2022-09-29T18:19:20.670Z,9.07
2022-09-29T18:22:25.947Z,9.01
2022-09-29T18:25:32.812Z,8.92
2022-09-29T18:28:38.117Z,8.84
2022-09-29T18:31:44.495Z,8.78
2022-09-29T18:34:49.973Z,8.77
2022-09-29T18:37:55.270Z,8.78
2022-09-29T18:41:01.502Z,8.78
2022-09-29T18:44:11.192Z,8.81
2022-09-29T18:47:16.947Z,8.85
2022-09-29T18:50:23.544Z,8.90
2022-09-29T18:53:29.167Z,8.90
2022-09-29T18:56:34.607Z,8.86
2022-09-29T18:59:39.904Z,8.81
2022-09-29T19:02:45.622Z,8.75
2022-09-29T19:05:51.631Z,8.70
2022-09-29T19:08:58.017Z,8.67
2022-09-29T19:12:03.778Z,8.61
2022-09-29T19:15:09.605Z,8.61
2022-09-29T19:18:18.459Z,8.62
2022-09-29T19:21:25.034Z,8.63
2022-09-29T19:24:30.347Z,8.59
2022-09-29T19:27:35.727Z,8.51
2022-09-29T19:30:42.078Z,8.45
2022-09-29T19:33:48.180Z,8.37
2022-09-29T19:36:53.840Z,8.22
2022-09-29T19:39:59.203Z,8.06
2022-09-29T19:43:06.682Z,7.88
2022-09-29T19:46:13.015Z,7.72
2022-09-29T19:49:18.687Z,7.55
2022-09-29T19:52:24.133Z,7.39
2022-09-29T19:55:29.459Z,7.22
2022-09-29T19:58:34.926Z,7.07
2022-09-29T20:01:40.166Z,6.94
2022-09-29T20:04:45.542Z,6.84
2022-09-29T20:07:52.124Z,6.77
2022-09-29T20:11:09.016Z,6.68
2022-09-29T20:14:16.191Z,6.57
2022-09-29T20:17:22.134Z,6.44
2022-09-29T20:20:30.410Z,6.31
2022-09-29T20:23:37.483Z,6.21
2022-09-29T20:26:44.373Z,6.15
2022-09-29T20:29:49.589Z,6.09
2022-09-29T20:32:54.900Z,6.00
2022-09-29T20:36:03.868Z,5.87
2022-09-29T20:39:11.922Z,5.75
2022-09-29T20:42:18.219Z,5.64
2022-09-29T20:45:23.669Z,5.50
2022-09-29T20:48:30.148Z,5.40
2022-09-29T20:51:38.208Z,5.30
2022-09-29T20:54:48.005Z,5.19
2022-09-29T20:58:00.529Z,5.09
2022-09-29T21:01:13.799Z,5.01
2022-09-29T21:04:20.565Z,4.93
2022-09-29T21:07:38.552Z,4.81
2022-09-29T21:10:43.923Z,4.71
2022-09-29T21:13:49.699Z,4.61
2022-09-29T21:16:55.417Z,4.56
2022-09-29T21:20:00.719Z,4.50
2022-09-29T21:23:06.019Z,4.46
2022-09-29T21:26:14.297Z,4.41
2022-09-29T21:29:20.336Z,4.37
2022-09-29T21:32:25.738Z,4.34
2022-09-29T21:35:31.265Z,4.32
2022-09-29T21:38:37.874Z,4.27
2022-09-29T21:41:43.798Z,4.19
2022-09-29T21:44:49.063Z,4.14
2022-09-29T21:48:09.989Z,4.10
2022-09-29T21:51:15.947Z,4.03
2022-09-29T21:54:23.592Z,3.97
2022-09-29T21:57:29.525Z,3.92
2022-09-29T22:00:35.588Z,3.85
2022-09-29T22:03:42.131Z,3.81
2022-09-29T22:06:47.527Z,3.76
2022-09-29T22:09:52.982Z,3.72
2022-09-29T22:12:58.130Z,3.71
2022-09-29T22:16:05.365Z,3.75
2022-09-29T22:19:23.025Z,3.80
2022-09-29T22:22:32.428Z,3.83
2022-09-29T22:25:43.089Z,3.81
2022-09-29T22:28:48.534Z,3.78
2022-09-29T22:31:53.891Z,3.72
2022-09-29T22:34:59.331Z,3.65
2022-09-29T22:38:04.940Z,3.61
2022-09-29T22:41:11.012Z,3.55
2022-09-29T22:44:17.823Z,3.49
2022-09-29T22:47:23.248Z,3.49
2022-09-29T22:50:31.559Z,3.52
2022-09-29T22:53:38.103Z,3.56
2022-09-29T22:56:43.381Z,3.63
2022-09-29T22:59:48.890Z,3.74
2022-09-29T23:02:54.145Z,3.84
2022-09-29T23:06:00.204Z,3.99
2022-09-29T23:09:05.666Z,4.10
2022-09-29T23:12:12.059Z,4.21
2022-09-29T23:15:17.615Z,4.33
2022-09-29T23:18:22.915Z,4.48
2022-09-29T23:21:28.419Z,4.62
2022-09-29T23:24:33.624Z,4.76
2022-09-29T23:27:41.285Z,4.83
2022-09-29T23:30:46.755Z,4.87
2022-09-29T23:33:55.982Z,4.90
2022-09-29T23:37:01.998Z,4.92
2022-09-29T23:40:09.024Z,4.94
2022-09-29T23:43:14.283Z,4.95
2022-09-29T23:46:22.425Z,4.96
2022-09-29T23:49:29.062Z,4.98
2022-09-29T23:52:34.655Z,4.99
2022-09-29T23:55:39.998Z,5.01
2022-09-29T23:58:45.472Z,5.05
